• Join FlightAware (Why Join?)
  • Login
  • US Flag 
09:03PM EDT


 

Airport Tracker/Info


-or-


 

Live Flight TrackerFlight Track Log ✈ FLG3729 ✈ 10-Oct-2013 ✈ KALB - KDTW

Flight Track Log - Related Links

Times and Time Zones

All times are in EDT time to prevent confusion due to time zone crossing. See the FLG3729 flight status page for this flight to view local times or setup timezone preferences in your user account.

Time Position Orientation Groundspeed Altitude Reporting Facility
EDT Latitude Longitude Course Direction KTS MPH feet Rate Location/Type
06:16AM 42.7672 -73.8061 347° North 163 188 1,100  Level Boston Center
06:18AM 42.8339 -73.8275 347° North 234 269 3,400 2,040 Climbing Boston Center
06:19AM 42.8953 -73.8997 319° Northwest 257 296 6,000 2,280 Climbing Boston Center
06:20AM 42.9611 -73.9750 320° Northwest 274 315 8,700 2,340 Climbing Boston Center
06:21AM 42.9892 -74.0636 293° West 285 328 10,700 1,560 Climbing Boston Center
06:22AM 43.0036 -74.1975 278° West 314 361 11,900 960 Climbing Boston Center
06:23AM 43.0164 -74.3256 278° West 368 423 12,700 1,080 Climbing Boston Center
06:24AM 43.0281 -74.4850 276° West 391 450 14,100 1,260 Climbing Boston Center
06:25AM 43.0400 -74.6247 277° West 402 463 15,300 1,320 Climbing Boston Center
06:26AM 43.0536 -74.7900 276° West 407 468 16,700 1,320 Climbing Boston Center
06:27AM 43.0669 -74.9469 277° West 407 468 18,000 1,080 Climbing Boston Center
06:28AM 43.0781 -75.0981 276° West 407 468 18,900 960 Climbing Boston Center
06:29AM 43.0908 -75.2550 276° West 407 468 20,000 900 Climbing Boston Center
06:30AM 43.1036 -75.4119 276° West 412 474 20,800 720 Climbing Boston Center
06:31AM 43.1144 -75.5492 276° West 412 474 21,500 660 Climbing Boston Center
06:32AM 43.1247 -75.7117 275° West 417 480 22,200 600 Climbing Boston Center
06:33AM 43.1367 -75.8689 276° West 423 487 22,700 480 Climbing Boston Center
06:34AM 43.1483 -76.0319 276° West 429 494 23,200 480 Climbing Boston Center
06:36AM 43.1461 -76.3506 270° West 435 501 24,200 480 Climbing Cleveland Center
06:37AM 43.1322 -76.5131 263° West 432 497 24,700 480 Climbing Cleveland Center
06:38AM 43.1183 -76.6761 263° West 433 498 25,200 480 Climbing Cleveland Center
06:39AM 43.1033 -76.8481 263° West 429 494 25,800 540 Climbing Cleveland Center
06:40AM 43.0889 -77.0086 263° West 427 491 26,300 480 Climbing Cleveland Center
06:41AM 43.0739 -77.1661 263° West 424 488 26,800 480 Climbing Cleveland Center
06:42AM 43.0597 -77.3239 263° West 421 484 27,300 480 Climbing Cleveland Center
06:43AM 43.0444 -77.4806 262° West 419 482 27,800 300 Climbing Cleveland Center
06:44AM 43.0300 -77.6364 263° West 419 482 28,000 60 Climbing Cleveland Center
06:45AM 43.0147 -77.7947 263° West 424 488 28,000  Level Cleveland Center
06:46AM 42.9953 -77.9881 262° West 433 498 28,000  Level Cleveland Center
06:47AM 42.9794 -78.1519 263° West 438 504 28,000  Level Cleveland Center
06:48AM 42.9633 -78.3125 262° West 432 497 28,000  Level Cleveland Center
06:49AM 42.9467 -78.4697 262° West 423 487 28,000  Level Cleveland Center
06:50AM 42.9308 -78.6231 262° West 414 476 28,000  Level Cleveland Center
06:51AM 42.9092 -78.7769 259° West 414 476 28,000  Level Cleveland Center
06:52AM 42.8869 -78.9331 259° West 419 482 28,000  Level Cleveland Center
06:53AM 42.8636 -79.0917 259° West 425 489 28,000  Level Cleveland Center
06:54AM 42.8350 -79.2856 259° West 435 501 28,000  Level Cleveland Center
06:55AM 42.8108 -79.4483 259° West 439 505 28,000  Level Cleveland Center
06:56AM 42.7853 -79.6128 258° West 445 512 28,000  Level Cleveland Center
06:57AM 42.7603 -79.7778 258° West 446 513 28,000  Level Cleveland Center
06:58AM 42.7456 -79.9461 263° West 450 518 28,000  Level Cleveland Center
06:59AM 42.7389 -80.1153 267° West 451 519 28,000  Level Cleveland Center
07:00AM 42.7314 -80.2886 267° West 456 525 28,000  Level Cleveland Center
07:01AM 42.7222 -80.4867 266° West 448 516 28,000  Level Cleveland Center
07:02AM 42.7139 -80.6617 266° West 457 526 28,000 -240 Level Cleveland Center
07:03AM 42.7069 -80.8406 267° West 468 539 27,600 -600 Descending Cleveland Center
07:04AM 42.6917 -81.0125 263° West 460 529 26,800 -840 Descending Cleveland Center
07:05AM 42.6722 -81.1783 261° West 447 514 26,000 -780 Descending Cleveland Center
07:06AM 42.6533 -81.3419 261° West 440 506 25,200 -1,080 Descending Cleveland Center
07:07AM 42.6344 -81.5064 261° West 438 504 23,900 -1,500 Descending Cleveland Center
07:08AM 42.6158 -81.6631 261° West 424 488 22,200 -1,800 Descending Cleveland Center
07:09AM 42.5961 -81.8192 260° West 414 476 20,300 -1,860 Descending Cleveland Center
07:10AM 42.5792 -81.9661 261° West 399 459 18,500 -1,620 Descending Cleveland Center
07:11AM 42.5614 -82.1103 261° West 391 450 17,000 -1,680 Descending Cleveland Center
07:12AM 42.5564 -82.1764 264° West 390 449 16,300 -1,800 Descending Cleveland Center
07:12AM 42.5431 -82.2539 257° West 390 449 15,200 -1,920 Descending Cleveland Center
07:13AM 42.5258 -82.4103 262° West 369 425 13,200 -2,040 Descending Cleveland Center
07:13AM 42.5236 -82.4169 246° West 371 427 13,100 -1,200 Descending Cleveland Center
07:14AM 42.5089 -82.5325 260° West 310 357 12,000 -1,140 Descending Cleveland Center
07:15AM 42.5069 -82.5400 251° West 343 395 12,000 -900 Level Cleveland Center
07:15AM 42.4792 -82.6250 246° West 288 331 11,200 -1,020 Descending Cleveland Center
07:16AM 42.4728 -82.6383 237° Southwest 295 339 11,000 -1,380 Descending Cleveland Center
07:16AM 42.4422 -82.7331 246° West 293 337 9,700 -1,380 Descending Cleveland Center
07:17AM 42.4378 -82.7383 221° Southwest 293 337 9,600 -1,320 Descending Cleveland Center
07:17AM 42.4222 -82.8350 258° West 285 328 8,400 -1,320 Descending Cleveland Center
07:18AM 42.4192 -82.8428 242° Southwest 290 334 8,300 -1,500 Descending Cleveland Center
07:18AM 42.4261 -82.9514 275° West 284 327 6,900 -1,380 Descending Cleveland Center
07:19AM 42.4244 -82.9489 132° Southeast 287 330 6,900 -780 Level Cleveland Center
07:20AM 42.4567 -83.0406 296° West 274 315 6,000 -540 Descending Cleveland Center
07:20AM 42.4811 -83.1144 294° West 192 221 6,000  Level Cleveland Center
07:21AM 42.4736 -83.1303 237° Southwest 226 260 6,000 -420 Level Cleveland Center
07:22AM 42.4322 -83.1761 219° Southwest 199 229 5,500 -840 Descending Cleveland Center
07:22AM 42.3947 -83.2044 209° Southwest 192 221 4,600 -1,140 Descending Cleveland Center
07:23AM 42.3839 -83.2111 204° Southwest 198 228 4,400 -1,020 Descending Cleveland Center
07:23AM 42.3478 -83.2403 211° Southwest 190 219 3,600 -1,080 Descending Cleveland Center
07:24AM 42.3372 -83.2444 196° South 192 221 3,300 -1,020 Descending Cleveland Center
07:24AM 42.3033 -83.2736 212° Southwest 178 205 2,600 -900 Descending Cleveland Center
07:25AM 42.2928 -83.2783 198° South 185 213 2,400 -840 Descending Cleveland Center
07:25AM 42.2656 -83.3022 213° Southwest 144 166 1,800 -840 Descending Cleveland Center
07:26AM 42.2575 -83.3047 193° South 153 176 1,600 -840 Descending Cleveland Center
07:26AM 42.2303 -83.3253 209° Southwest 137 158 1,000 -600 Descending Cleveland Center
07:27AM 42.2206 -83.3317 206° Southwest 145 167 1,000  Level Cleveland Center
07:29AM 42.2000 -83.3500 214° Southwest  Level FlightAware Approximate
07:36AM 42.2124 -83.3534 214° Southwest  Level Estimated